Time;durP1;ratioP1;P1;durP2;ratioP2;P2;SDS_P1;SDS_P2;PMS_P1;PMS_P2;Temp;Humidity;BMP_temperature;BMP_pressure;BME280_temperature;BME280_humidity;BME280_pressure;Samples;Min_cycle;Max_cycle;Signal;HPM_P1;HPM_P2
2022/01/11 05:25:25;;;;;;;17.85;9.45;;;;;;;-1.97;68.61;101265.38;6610686;26;20147;-90
2022/01/11 05:28:28;;;;;;;17.40;9.27;;;;;;;-1.97;68.61;101265.38;6602989;26;138024;-91
2022/01/11 05:38:55;;;;;;;19.70;9.60;;;;;;;-2.87;73.28;101285.38;6615405;26;20065;-90
2022/01/11 05:42:06;;;;;;;18.12;9.02;;;;;;;-2.97;74.41;101286.88;6609930;26;34620;-90
2022/01/11 05:45:16;;;;;;;21.85;9.50;;;;;;;-3.03;75.26;101302.34;6608174;26;33521;-90
2022/01/11 05:48:32;;;;;;;20.02;9.60;;;;;;;-3.23;75.99;101305.38;6608719;26;34169;-89
2022/01/11 05:55:29;;;;;;;21.85;9.82;;;;;;;-3.32;76.68;101313.84;6610312;26;20056;-89
2022/01/11 06:10:25;;;;;;;17.17;8.00;;;;;;;-3.02;73.04;101317.09;6610043;26;20067;-89
2022/01/11 06:13:28;;;;;;;14.55;8.13;;;;;;;-2.95;72.10;101331.97;6613244;26;34542;-89
2022/01/11 06:16:31;;;;;;;20.55;8.57;;;;;;;-3.03;72.35;101329.19;6609291;26;34089;-90
2022/01/11 06:19:35;;;;;;;19.55;9.05;;;;;;;-2.96;72.12;101338.00;6608026;26;34113;-91
2022/01/11 06:22:38;;;;;;;19.05;8.98;;;;;;;-2.89;71.79;101345.06;6617155;26;33790;-88
2022/01/11 06:25:41;;;;;;;19.37;8.88;;;;;;;-2.89;71.69;101359.75;6613356;26;33898;-91
2022/01/11 06:40:01;;;;;;;19.12;8.80;;;;;;;-3.27;74.61;101384.91;6614036;26;20036;-89
2022/01/11 06:43:06;;;;;;;18.42;8.20;;;;;;;-3.19;73.64;101379.87;6606731;26;35274;-89
2022/01/11 06:46:10;;;;;;;16.75;8.50;;;;;;;-3.12;73.13;101393.91;6610475;26;34055;-89
2022/01/11 06:49:13;;;;;;;20.12;9.25;;;;;;;-3.03;72.18;101396.69;6614260;26;33863;-88
2022/01/11 06:52:16;;;;;;;22.80;8.98;;;;;;;-2.99;71.86;101398.53;6625357;27;34721;-88
2022/01/11 06:55:20;;;;;;;18.87;9.05;;;;;;;-2.94;71.61;101405.53;6621235;26;35210;-88
2022/01/11 06:58:23;;;;;;;17.55;8.38;;;;;;;-2.90;71.31;101415.16;6611094;27;35121;-88
2022/01/11 07:01:29;;;;;;;18.17;8.32;;;;;;;-2.93;71.35;101408.16;6611833;27;35345;-88
2022/01/11 07:04:33;;;;;;;24.98;9.73;;;;;;;-2.94;71.73;101418.50;6608098;27;34325;-88
2022/01/11 07:07:37;;;;;;;18.27;8.57;;;;;;;-2.89;71.54;101420.37;6608419;27;34064;-88
2022/01/11 07:10:40;;;;;;;18.75;8.65;;;;;;;-2.78;71.11;101415.41;6603716;26;34535;-88
2022/01/11 07:13:43;;;;;;;17.98;9.20;;;;;;;-2.77;70.90;101414.56;6609051;27;34446;-88
2022/01/11 07:16:48;;;;;;;18.02;9.27;;;;;;;-2.77;70.96;101421.50;6609295;27;34181;-90
2022/01/11 07:19:52;;;;;;;19.50;9.27;;;;;;;-2.71;70.95;101419.91;6609428;27;33931;-88
2022/01/11 07:22:55;;;;;;;19.42;9.27;;;;;;;-2.79;71.06;101423.16;6608762;27;34325;-89
2022/01/11 07:25:59;;;;;;;19.58;9.82;;;;;;;-2.79;71.08;101418.88;6608666;26;34976;-92
2022/01/11 07:29:03;;;;;;;21.23;9.35;;;;;;;-2.75;70.99;101423.31;6610786;27;34334;-92
2022/01/11 07:32:07;;;;;;;19.30;9.55;;;;;;;-2.68;70.33;101431.22;6607486;27;34265;-88
2022/01/11 07:35:10;;;;;;;20.33;9.48;;;;;;;-2.65;70.26;101439.06;6609292;27;33983;-88
2022/01/11 07:38:18;;;;;;;16.87;8.90;;;;;;;-2.55;69.80;101435.84;6609300;27;33789;-90
2022/01/11 07:41:21;;;;;;;19.85;9.15;;;;;;;-2.46;69.28;101438.62;6603661;27;34006;-84
2022/01/11 07:44:25;;;;;;;17.85;9.00;;;;;;;-2.41;69.08;101440.44;6613071;27;34355;-84
2022/01/11 07:47:29;;;;;;;17.42;8.27;;;;;;;-2.31;67.95;101445.88;6609789;27;33922;-84
2022/01/11 07:50:32;;;;;;;19.55;9.18;;;;;;;-2.26;67.82;101445.09;6609112;27;34006;-83
2022/01/11 07:53:35;;;;;;;17.70;8.90;;;;;;;-2.19;67.16;101449.56;6607878;27;34321;-83
2022/01/11 07:56:40;;;;;;;19.62;8.88;;;;;;;-2.11;66.75;101442.78;6608440;27;34292;-84
2022/01/11 07:59:42;;;;;;;17.00;8.75;;;;;;;-1.99;65.88;101452.56;6610111;27;34269;-84
2022/01/11 08:03:01;;;;;;;17.62;9.00;;;;;;;-1.98;65.89;101454.31;6610238;27;35104;-84
2022/01/11 08:06:05;;;;;;;19.77;8.95;;;;;;;-1.87;65.60;101458.84;6613550;27;33719;-84
2022/01/11 08:09:08;;;;;;;19.90;9.32;;;;;;;-1.90;65.37;101463.13;6609624;27;33888;-83
2022/01/11 08:12:11;;;;;;;18.92;9.70;;;;;;;-1.84;65.29;101471.91;6612407;27;34430;-85
2022/01/11 08:15:15;;;;;;;19.05;9.35;;;;;;;-1.79;65.22;101471.16;6611398;27;34667;-84
2022/01/11 08:18:19;;;;;;;20.17;9.80;;;;;;;-1.72;64.79;101477.34;6610923;27;34811;-84
2022/01/11 08:21:22;;;;;;;17.65;9.52;;;;;;;-1.69;64.69;101481.72;6609425;27;33903;-83
2022/01/11 08:24:25;;;;;;;17.55;8.80;;;;;;;-1.64;63.92;101469.69;6608931;27;33879;-83
2022/01/11 08:27:29;;;;;;;20.40;9.15;;;;;;;-1.66;64.46;101479.19;6608203;27;34993;-84
2022/01/11 08:30:34;;;;;;;19.95;9.05;;;;;;;-1.60;63.99;101478.44;6613524;27;33836;-84
2022/01/11 08:33:38;;;;;;;18.30;9.07;;;;;;;-1.52;62.81;101487.25;6609987;27;34153;-84
2022/01/11 08:36:43;;;;;;;17.55;9.10;;;;;;;-1.46;62.92;101489.09;6609606;27;34719;-84
2022/01/11 08:39:47;;;;;;;19.87;9.55;;;;;;;-1.51;63.25;101494.22;6618115;27;34661;-85
2022/01/11 08:42:51;;;;;;;23.20;9.98;;;;;;;-1.36;62.92;101494.50;6623869;27;35937;-84
2022/01/11 08:45:54;;;;;;;26.12;11.07;;;;;;;-1.30;62.80;101491.13;6612439;27;35243;-89
2022/01/11 08:48:57;;;;;;;23.92;10.55;;;;;;;-1.26;62.91;101490.31;6609118;27;35093;-90
2022/01/11 08:52:00;;;;;;;20.83;10.45;;;;;;;-1.20;62.94;101494.78;6608726;27;34098;-89
2022/01/11 08:55:06;;;;;;;25.00;11.20;;;;;;;-1.11;62.07;101494.91;6610401;27;33879;-88
2022/01/11 08:58:10;;;;;;;22.58;11.40;;;;;;;-1.02;61.83;101501.09;6615242;27;34367;-85
2022/01/11 09:01:13;;;;;;;27.35;11.93;;;;;;;-1.10;62.08;101501.00;6621945;27;34166;-83
2022/01/11 09:04:17;;;;;;;23.40;11.63;;;;;;;-1.02;61.60;101517.63;6614531;27;33927;-84
2022/01/11 09:07:21;;;;;;;22.17;10.00;;;;;;;-1.01;61.10;101511.56;6612240;27;34427;-83
2022/01/11 09:10:23;;;;;;;21.37;9.90;;;;;;;-1.03;60.50;101515.00;6612206;27;34360;-83
2022/01/11 09:13:27;;;;;;;24.70;9.80;;;;;;;-1.01;61.15;101508.97;6609594;27;35534;-84
2022/01/11 09:16:29;;;;;;;19.02;9.30;;;;;;;-1.00;60.49;101520.25;6607902;27;33898;-84
2022/01/11 09:19:33;;;;;;;20.33;9.25;;;;;;;-0.93;59.57;101511.69;6609953;27;33942;-84
2022/01/11 09:22:36;;;;;;;20.02;9.57;;;;;;;-0.92;60.23;101502.16;6608018;27;33519;-84
2022/01/11 09:25:40;;;;;;;28.95;9.25;;;;;;;-0.57;59.53;101509.62;6607563;27;34012;-85
2022/01/11 09:28:44;;;;;;;21.87;9.88;;;;;;;-0.39;59.23;101500.31;6608469;27;34223;-84
2022/01/11 09:31:47;;;;;;;17.08;9.15;;;;;;;-0.47;58.63;101497.59;6608229;27;35056;-85
2022/01/11 09:34:51;;;;;;;19.98;9.48;;;;;;;0.79;55.73;101501.66;6608559;27;33811;-85
2022/01/11 09:37:54;;;;;;;23.62;10.75;;;;;;;3.16;48.94;101492.16;6608108;27;34002;-86
2022/01/11 09:40:58;;;;;;;20.48;9.32;;;;;;;3.27;46.58;101493.00;6608091;27;34902;-85
2022/01/11 09:44:01;;;;;;;19.48;10.13;;;;;;;3.77;45.99;101483.25;6609151;27;34175;-85
2022/01/11 09:47:11;;;;;;;19.98;9.68;;;;;;;5.33;42.04;101476.94;6612105;27;34477;-85
2022/01/11 09:50:16;;;;;;;18.02;9.18;;;;;;;6.92;38.18;101476.63;6609740;27;34619;-85
2022/01/11 09:53:20;;;;;;;15.60;8.45;;;;;;;7.63;37.32;101475.38;6610322;27;34187;-84
2022/01/11 09:56:24;;;;;;;16.27;8.55;;;;;;;7.68;35.36;101472.62;6609819;27;33602;-85
2022/01/11 09:59:26;;;;;;;15.57;7.78;;;;;;;8.34;34.58;101473.00;6611819;27;34273;-85
2022/01/11 10:02:30;;;;;;;15.48;8.57;;;;;;;10.43;32.04;101475.44;6618494;27;34647;-85
2022/01/11 10:05:36;;;;;;;16.00;9.02;;;;;;;11.72;28.85;101464.91;6621625;27;34358;-84
2022/01/11 10:08:40;;;;;;;14.68;8.35;;;;;;;10.47;30.01;101462.94;6611722;27;33850;-85
2022/01/11 10:11:46;;;;;;;14.65;8.70;;;;;;;9.02;32.16;101467.00;6612607;27;34397;-84
2022/01/11 10:14:53;;;;;;;16.23;8.80;;;;;;;8.49;33.51;101470.91;6614133;27;33723;-84
2022/01/11 10:17:56;;;;;;;13.25;8.07;;;;;;;6.70;36.59;101467.31;6612502;27;35547;-84
2022/01/11 10:21:24;;;;;;;13.80;7.45;;;;;;;5.26;39.33;101464.75;6611611;27;33965;-84
2022/01/11 10:24:35;;;;;;;13.55;7.97;;;;;;;3.97;42.61;101471.78;6608794;27;33613;-83
2022/01/11 10:27:40;;;;;;;16.52;7.50;;;;;;;3.83;43.21;101474.47;6611895;27;33856;-83
2022/01/11 10:30:43;;;;;;;16.08;7.85;;;;;;;4.34;51.03;101470.75;6613905;27;34129;-84
2022/01/11 10:34:04;;;;;;;16.35;7.47;;;;;;;4.86;43.13;101473.87;6617928;27;35944;-85
2022/01/11 10:37:08;;;;;;;13.07;7.97;;;;;;;5.15;42.64;101472.75;6618627;27;33949;-84
2022/01/11 10:40:18;;;;;;;13.90;7.75;;;;;;;5.33;44.52;101463.78;6614472;26;34620;-84
2022/01/11 10:43:23;;;;;;;17.37;7.20;;;;;;;6.19;46.39;101473.38;6608263;27;34220;-84
2022/01/11 10:46:43;;;;;;;16.80;7.80;;;;;;;7.11;44.90;101469.28;6608632;27;34984;-85
2022/01/11 10:49:54;;;;;;;;;;;;;;;5.15;40.79;101474.50;6609490;27;33742;-85
2022/01/11 10:53:03;;;;;;;16.48;7.70;;;;;;;4.80;41.61;101472.19;6609081;27;34531;-85
2022/01/11 10:56:08;;;;;;;13.55;7.47;;;;;;;4.38;43.08;101471.59;6612468;27;34844;-85
2022/01/11 10:59:18;;;;;;;13.93;7.70;;;;;;;4.70;42.72;101471.37;6610555;27;33540;-85
2022/01/11 11:02:25;;;;;;;14.35;8.00;;;;;;;4.14;43.98;101476.09;6613326;27;34235;-85
2022/01/11 11:05:37;;;;;;;16.10;8.05;;;;;;;3.96;44.50;101474.41;6609837;27;34130;-85
2022/01/11 11:08:45;;;;;;;14.43;7.62;;;;;;;3.58;45.63;101471.09;6614291;27;34515;-84
2022/01/11 11:12:18;;;;;;;14.40;7.28;;;;;;;3.96;44.02;101469.16;6610292;27;33721;-85
2022/01/11 11:15:29;;;;;;;14.35;7.70;;;;;;;3.53;45.68;101478.09;6614046;27;33890;-88
2022/01/11 11:18:45;;;;;;;16.75;8.20;;;;;;;3.18;46.06;101470.28;6613725;27;34331;-84
2022/01/11 11:21:49;;;;;;;15.00;7.90;;;;;;;3.49;46.26;101472.88;6614977;27;33701;-85
2022/01/11 11:24:53;;;;;;;12.70;8.02;;;;;;;3.75;45.06;101479.78;6613956;27;34417;-84
2022/01/11 11:27:56;;;;;;;13.20;7.40;;;;;;;4.75;42.25;101473.06;6614981;27;33748;-84
2022/01/11 11:30:59;;;;;;;14.68;7.90;;;;;;;4.91;41.50;101463.31;6614361;27;34632;-84
2022/01/11 11:34:03;;;;;;;13.95;7.70;;;;;;;4.25;43.62;101463.78;6620055;27;34055;-85
2022/01/11 11:37:07;;;;;;;13.62;7.93;;;;;;;3.68;45.06;101469.28;6612636;27;34184;-84
2022/01/11 11:40:17;;;;;;;15.40;8.48;;;;;;;3.29;46.00;101462.41;6611157;27;34320;-84
2022/01/11 11:43:21;;;;;;;13.07;7.37;;;;;;;3.36;46.07;101471.13;6612251;27;34530;-84
2022/01/11 11:46:44;;;;;;;16.85;8.25;;;;;;;5.59;41.25;101467.03;6611169;27;33807;-85
2022/01/11 11:49:55;;;;;;;12.68;7.70;;;;;;;5.38;40.84;101456.72;6613773;27;34276;-85
2022/01/11 11:52:58;;;;;;;17.67;8.13;;;;;;;4.14;43.88;101463.84;6622901;27;34252;-85
2022/01/11 11:56:22;;;;;;;14.18;7.60;;;;;;;4.17;47.01;101462.94;6619778;27;34294;-84
2022/01/11 11:59:25;;;;;;;17.48;8.27;;;;;;;3.50;48.88;101464.09;6609776;27;34443;-84
2022/01/11 12:03:01;;;;;;;14.60;7.50;;;;;;;3.46;46.13;101456.22;6613604;27;34614;-84
2022/01/11 12:06:25;;;;;;;12.88;6.87;;;;;;;2.85;47.39;101455.47;6614166;27;34141;-85
2022/01/11 12:09:42;;;;;;;13.35;7.15;;;;;;;2.87;47.61;101461.56;6618735;27;34434;-85
2022/01/11 12:12:54;;;;;;;15.45;7.55;;;;;;;2.78;47.80;101455.47;6617143;27;33990;-84
2022/01/11 12:15:57;;;;;;;13.48;7.53;;;;;;;2.89;47.67;101457.19;6613965;27;34135;-85
2022/01/11 12:19:03;;;;;;;14.77;7.37;;;;;;;2.85;47.75;101452.84;6611421;27;34200;-86
2022/01/11 12:22:06;;;;;;;14.82;7.70;;;;;;;2.90;47.38;101457.19;6609860;27;35030;-85
2022/01/11 12:25:30;;;;;;;13.10;7.03;;;;;;;2.73;48.17;101457.22;6609425;27;34622;-85
2022/01/11 12:28:32;;;;;;;15.15;7.93;;;;;;;2.78;47.93;101455.47;6608767;27;34072;-85
2022/01/11 12:31:37;;;;;;;14.18;7.60;;;;;;;3.06;47.25;101459.78;6609952;27;33890;-85
2022/01/11 12:34:45;;;;;;;12.98;6.85;;;;;;;2.86;47.67;101457.22;6610370;27;34733;-85
2022/01/11 12:37:48;;;;;;;13.40;7.12;;;;;;;2.68;47.67;101465.03;6609602;27;34077;-86
2022/01/11 12:40:51;;;;;;;11.70;7.00;;;;;;;2.78;47.46;101454.59;6610339;26;34059;-85
2022/01/11 12:47:46;;;;;;;14.07;6.93;;;;;;;3.05;47.02;101472.06;6611455;27;34068;-85
2022/01/11 12:51:01;;;;;;;14.25;7.25;;;;;;;2.85;47.63;101463.34;6613228;27;34012;-84
2022/01/11 12:54:53;;;;;;;11.95;6.72;;;;;;;2.94;47.07;101464.19;6617328;27;34298;-88
2022/01/11 12:57:56;;;;;;;;;;;;;;;2.67;47.36;101472.94;6616882;27;34026;-85
2022/01/11 13:00:59;;;;;;;11.85;6.62;;;;;;;2.62;47.98;101474.66;6620307;27;35263;-85
2022/01/11 13:04:02;;;;;;;11.40;6.72;;;;;;;2.63;47.87;101476.41;6612317;27;35068;-84
2022/01/11 13:07:15;;;;;;;12.48;6.82;;;;;;;2.60;47.41;101477.28;6616507;27;34862;-84
2022/01/11 13:10:26;;;;;;;12.95;6.60;;;;;;;2.61;47.54;101472.91;6609695;27;34161;-85
2022/01/11 13:13:30;;;;;;;11.02;6.50;;;;;;;2.67;47.54;101478.16;6612654;27;34877;-84
2022/01/11 13:16:35;;;;;;;16.08;7.20;;;;;;;2.71;47.83;101476.41;6613664;27;34197;-85
2022/01/11 13:19:40;;;;;;;13.65;7.32;;;;;;;2.60;48.01;101474.66;6611086;27;33987;-84
2022/01/11 13:22:54;;;;;;;14.75;7.68;;;;;;;2.47;48.21;101476.38;6612254;27;34184;-84
2022/01/11 13:26:05;;;;;;;12.50;6.62;;;;;;;2.48;48.40;101486.00;6613393;27;34027;-84
2022/01/11 13:29:08;;;;;;;16.20;7.30;;;;;;;2.50;48.37;101480.75;6611325;27;34236;-84
2022/01/11 13:32:11;;;;;;;13.82;6.97;;;;;;;2.54;47.92;101480.78;6611668;27;34291;-84
2022/01/11 13:35:14;;;;;;;12.10;6.80;;;;;;;2.52;48.03;101479.88;6610610;27;34156;-85
2022/01/11 13:38:17;;;;;;;14.15;7.37;;;;;;;2.39;48.38;101484.25;6611781;27;34286;-85
2022/01/11 13:41:28;;;;;;;13.18;7.50;;;;;;;2.51;48.24;101483.38;6610380;27;34119;-84
2022/01/11 13:44:43;;;;;;;12.57;6.80;;;;;;;2.42;48.52;101479.00;6612662;27;34441;-85
2022/01/11 13:47:49;;;;;;;15.98;7.47;;;;;;;2.37;48.32;101479.88;6613737;27;34171;-88
2022/01/11 13:50:53;;;;;;;13.23;7.10;;;;;;;2.30;48.45;101492.06;6611066;27;33762;-89
2022/01/11 13:54:07;;;;;;;13.00;6.82;;;;;;;2.29;49.13;101490.31;6611132;27;34604;-87
2022/01/11 13:57:15;;;;;;;16.30;7.78;;;;;;;2.34;48.68;101495.56;6616060;27;34614;-84
2022/01/11 14:00:18;;;;;;;10.55;6.12;;;;;;;2.40;48.06;101501.69;6614495;27;34441;-85
2022/01/11 14:03:22;;;;;;;11.50;6.18;;;;;;;2.35;47.84;101502.53;6611053;27;34908;-85
2022/01/11 14:06:24;;;;;;;14.30;6.90;;;;;;;2.19;48.55;101486.81;6615584;27;34497;-85
2022/01/11 14:09:35;;;;;;;13.38;6.07;;;;;;;2.14;48.78;101484.19;6611169;27;34319;-85
2022/01/11 14:12:41;;;;;;;11.12;6.37;;;;;;;2.20;48.70;101487.69;6610565;27;34035;-85
2022/01/11 14:15:56;;;;;;;10.52;6.00;;;;;;;2.14;48.86;101486.78;6610781;27;33946;-84
2022/01/11 14:19:09;;;;;;;13.02;6.28;;;;;;;2.08;48.97;101492.00;6610224;27;34003;-84
2022/01/11 14:22:12;;;;;;;11.45;6.40;;;;;;;2.14;48.80;101501.59;6611284;27;34393;-84
2022/01/11 14:25:26;;;;;;;11.57;6.15;;;;;;;2.08;48.77;101497.25;6623537;27;34034;-85
2022/01/11 14:28:32;;;;;;;8.05;4.95;;;;;;;2.09;48.28;101506.84;6617816;27;35221;-84
2022/01/11 14:31:36;;;;;;;8.73;5.20;;;;;;;2.11;47.83;101512.09;6610474;27;34268;-84
2022/01/11 14:34:39;;;;;;;9.18;5.47;;;;;;;2.03;48.00;101506.81;6610693;27;33658;-83
2022/01/11 14:37:42;;;;;;;9.48;5.45;;;;;;;2.00;48.37;101515.53;6610016;27;34033;-83
2022/01/11 14:41:06;;;;;;;9.30;5.35;;;;;;;1.97;48.44;101520.72;6614949;26;34136;-84
2022/01/11 14:44:20;;;;;;;8.43;4.90;;;;;;;1.88;48.63;101518.94;6615783;27;34613;-84
2022/01/11 14:47:23;;;;;;;8.20;4.97;;;;;;;2.04;48.52;101531.22;6624221;26;35367;-84
2022/01/11 14:50:28;;;;;;;11.15;5.22;;;;;;;1.97;48.29;101518.13;6612743;27;35023;-84
2022/01/11 14:53:35;;;;;;;10.27;5.35;;;;;;;1.77;48.97;101533.75;6614512;27;34041;-84
2022/01/11 14:56:42;;;;;;;8.95;5.18;;;;;;;1.74;49.01;101523.25;6610074;27;33620;-88
2022/01/11 14:59:46;;;;;;;8.27;4.93;;;;;;;1.67;48.97;101542.41;6610173;27;35015;-86
2022/01/11 15:02:48;;;;;;;7.72;4.72;;;;;;;1.57;49.18;101544.94;6610694;27;34419;-85
2022/01/11 15:06:20;;;;;;;6.70;4.45;;;;;;;1.51;49.89;101549.25;6611873;27;35113;-85
2022/01/11 15:09:27;;;;;;;7.95;4.80;;;;;;;1.56;48.98;101539.72;6599162;27;34171;-85
2022/01/11 15:12:29;;;;;;;7.05;4.82;;;;;;;1.64;48.78;101542.34;6611058;27;33921;-85
2022/01/11 15:15:32;;;;;;;7.90;5.07;;;;;;;1.64;48.78;101542.34;6610996;27;33763;-85
2022/01/11 15:18:35;;;;;;;9.85;5.68;;;;;;;1.55;49.17;101549.28;6612123;27;34289;-84
2022/01/11 15:21:38;;;;;;;10.98;5.18;;;;;;;1.39;49.60;101545.69;6612486;27;34015;-84
2022/01/11 15:24:41;;;;;;;9.70;5.40;;;;;;;1.41;50.00;101553.56;6612543;27;33998;-84
2022/01/11 15:27:44;;;;;;;7.60;4.70;;;;;;;1.41;49.66;101557.03;6615535;27;34034;-83
2022/01/11 15:30:47;;;;;;;10.40;5.85;;;;;;;1.28;50.24;101556.09;6612308;27;34957;-81
2022/01/11 15:33:50;;;;;;;7.97;4.43;;;;;;;1.21;50.37;101559.50;6613081;27;33910;-83
2022/01/11 15:36:54;;;;;;;9.02;5.10;;;;;;;1.17;50.53;101562.97;6615898;27;33862;-83
2022/01/11 15:39:56;;;;;;;8.38;4.90;;;;;;;1.10;50.79;101563.78;6614324;26;34218;-83
2022/01/11 15:42:59;;;;;;;11.45;5.37;;;;;;;1.00;51.00;101574.12;6615668;27;33607;-85
2022/01/11 15:46:01;;;;;;;9.40;5.28;;;;;;;1.02;50.76;101567.19;6613504;27;34103;-82
2022/01/11 15:49:06;;;;;;;10.43;5.22;;;;;;;0.96;50.72;101574.09;6614646;27;33988;-83
2022/01/11 15:52:09;;;;;;;11.82;5.93;;;;;;;0.88;51.13;101574.91;6618723;27;34685;-84
2022/01/11 15:55:12;;;;;;;13.13;5.93;;;;;;;0.82;50.99;101579.16;6622236;27;34028;-84
2022/01/11 15:58:15;;;;;;;13.68;5.95;;;;;;;0.78;51.29;101580.88;6623788;27;35291;-84
2022/01/11 16:01:19;;;;;;;8.82;5.55;;;;;;;0.74;51.61;101585.19;6612597;27;33858;-84
2022/01/11 16:04:23;;;;;;;10.57;5.97;;;;;;;0.74;51.65;101585.19;6612439;27;35485;-84
2022/01/11 16:07:25;;;;;;;12.15;6.03;;;;;;;0.73;51.95;101587.78;6612551;27;34389;-84
2022/01/11 16:10:28;;;;;;;9.88;5.72;;;;;;;0.70;52.21;101593.84;6612119;27;34181;-84
2022/01/11 16:13:31;;;;;;;11.05;5.97;;;;;;;0.65;52.41;101599.03;6611802;27;34285;-83
2022/01/11 16:16:37;;;;;;;11.77;6.80;;;;;;;0.69;52.36;101601.69;6612652;27;34173;-83
2022/01/11 16:19:39;;;;;;;13.15;6.80;;;;;;;0.62;52.72;101598.12;6612587;27;34051;-83
2022/01/11 16:22:42;;;;;;;12.30;6.62;;;;;;;0.62;52.92;101605.97;6613650;27;35202;-83
2022/01/11 16:25:45;;;;;;;14.30;7.25;;;;;;;0.60;53.12;101602.47;6617000;27;34098;-83
2022/01/11 16:28:48;;;;;;;13.40;6.60;;;;;;;0.58;53.35;101607.66;6619030;27;34551;-84
2022/01/11 16:31:50;;;;;;;13.75;7.05;;;;;;;0.49;53.51;101602.31;6617025;27;33869;-84
2022/01/11 16:34:53;;;;;;;15.35;7.18;;;;;;;0.51;53.23;101618.91;6614876;27;34524;-84
2022/01/11 16:37:57;;;;;;;12.45;7.00;;;;;;;0.42;53.64;101606.59;6612174;27;34112;-85
